sensor_id;sensor_type;location;lat;lon;timestamp;pressure;altitude;pressure_sealevel;temperature;humidity
6028;BME280;3042;43.194;27.646;2022-08-03T00:01:07;101400.28;;;29.18;100.00
6028;BME280;3042;43.194;27.646;2022-08-03T00:03:35;101377.81;;;28.90;100.00
6028;BME280;3042;43.194;27.646;2022-08-03T00:06:02;101379.72;;;28.85;100.00
6028;BME280;3042;43.194;27.646;2022-08-03T00:08:29;101377.16;;;28.78;100.00
6028;BME280;3042;43.194;27.646;2022-08-03T00:10:57;101377.44;;;28.66;100.00
6028;BME280;3042;43.194;27.646;2022-08-03T00:13:24;101374.97;;;28.57;100.00
6028;BME280;3042;43.194;27.646;2022-08-03T00:15:52;101374.25;;;28.46;100.00
6028;BME280;3042;43.194;27.646;2022-08-03T00:18:21;101263.78;;;27.86;100.00
6028;BME280;3042;43.194;27.646;2022-08-03T00:20:48;101358.38;;;27.94;100.00
6028;BME280;3042;43.194;27.646;2022-08-03T00:23:15;101374.16;;;28.04;100.00
6028;BME280;3042;43.194;27.646;2022-08-03T00:25:43;101379.72;;;27.91;100.00
6028;BME280;3042;43.194;27.646;2022-08-03T00:28:10;101372.97;;;27.69;100.00
6028;BME280;3042;43.194;27.646;2022-08-03T00:30:37;101372.91;;;27.72;100.00
6028;BME280;3042;43.194;27.646;2022-08-03T00:33:05;101385.03;;;27.88;100.00
6028;BME280;3042;43.194;27.646;2022-08-03T00:35:36;101402.22;;;28.20;100.00
6028;BME280;3042;43.194;27.646;2022-08-03T00:38:03;101299.75;;;27.52;100.00
6028;BME280;3042;43.194;27.646;2022-08-03T00:40:31;101282.47;;;27.28;100.00
6028;BME280;3042;43.194;27.646;2022-08-03T00:42:59;101396.97;;;28.17;100.00
6028;BME280;3042;43.194;27.646;2022-08-03T00:45:28;101398.78;;;28.15;100.00
6028;BME280;3042;43.194;27.646;2022-08-03T00:47:56;101375.38;;;27.83;100.00
6028;BME280;3042;43.194;27.646;2022-08-03T00:50:25;101389.25;;;28.02;100.00
6028;BME280;3042;43.194;27.646;2022-08-03T00:52:55;101403.16;;;28.17;100.00
6028;BME280;3042;43.194;27.646;2022-08-03T00:55:23;101368.00;;;27.47;100.00
6028;BME280;3042;43.194;27.646;2022-08-03T00:57:50;101207.72;;;26.38;100.00
6028;BME280;3042;43.194;27.646;2022-08-03T01:00:20;101409.94;;;27.81;100.00
6028;BME280;3042;43.194;27.646;2022-08-03T01:02:47;101394.06;;;27.78;100.00
6028;BME280;3042;43.194;27.646;2022-08-03T01:05:15;101370.38;;;27.64;100.00
6028;BME280;3042;43.194;27.646;2022-08-03T01:07:55;101398.53;;;27.74;100.00
6028;BME280;3042;43.194;27.646;2022-08-03T01:10:32;101388.69;;;27.81;100.00
6028;BME280;3042;43.194;27.646;2022-08-03T01:13:14;101420.25;;;28.03;100.00
6028;BME280;3042;43.194;27.646;2022-08-03T01:15:49;101409.56;;;28.06;100.00
6028;BME280;3042;43.194;27.646;2022-08-03T01:18:35;101412.84;;;28.20;100.00
6028;BME280;3042;43.194;27.646;2022-08-03T01:21:09;101396.22;;;28.09;100.00
6028;BME280;3042;43.194;27.646;2022-08-03T01:24:04;101414.59;;;28.21;100.00
6028;BME280;3042;43.194;27.646;2022-08-03T01:26:53;101437.19;;;28.47;100.00
6028;BME280;3042;43.194;27.646;2022-08-03T01:29:40;101416.19;;;28.31;100.00
6028;BME280;3042;43.194;27.646;2022-08-03T01:32:14;101403.38;;;28.05;100.00
6028;BME280;3042;43.194;27.646;2022-08-03T01:34:47;101420.66;;;28.29;100.00
6028;BME280;3042;43.194;27.646;2022-08-03T01:37:25;101431.91;;;28.44;100.00
6028;BME280;3042;43.194;27.646;2022-08-03T01:39:55;101432.13;;;28.31;100.00
6028;BME280;3042;43.194;27.646;2022-08-03T01:42:24;101405.28;;;27.97;100.00
6028;BME280;3042;43.194;27.646;2022-08-03T01:44:54;101427.69;;;28.32;100.00
6028;BME280;3042;43.194;27.646;2022-08-03T01:47:23;101412.91;;;28.17;100.00
6028;BME280;3042;43.194;27.646;2022-08-03T01:49:51;101339.34;;;27.68;100.00
6028;BME280;3042;43.194;27.646;2022-08-03T01:52:20;101391.50;;;27.72;100.00
6028;BME280;3042;43.194;27.646;2022-08-03T01:54:50;101299.34;;;27.23;100.00
6028;BME280;3042;43.194;27.646;2022-08-03T01:57:19;101398.31;;;27.90;100.00
6028;BME280;3042;43.194;27.646;2022-08-03T01:59:49;101399.16;;;27.92;100.00
6028;BME280;3042;43.194;27.646;2022-08-03T02:02:20;101302.72;;;27.34;100.00
6028;BME280;3042;43.194;27.646;2022-08-03T02:04:48;101377.56;;;27.57;100.00
6028;BME280;3042;43.194;27.646;2022-08-03T02:07:16;101384.53;;;27.65;100.00
6028;BME280;3042;43.194;27.646;2022-08-03T02:09:47;101393.31;;;27.70;100.00
6028;BME280;3042;43.194;27.646;2022-08-03T02:12:16;101377.75;;;27.45;100.00
6028;BME280;3042;43.194;27.646;2022-08-03T02:14:45;101375.16;;;27.42;100.00
6028;BME280;3042;43.194;27.646;2022-08-03T02:17:15;101400.44;;;27.68;100.00
6028;BME280;3042;43.194;27.646;2022-08-03T02:19:44;101397.66;;;27.74;100.00
6028;BME280;3042;43.194;27.646;2022-08-03T02:22:13;101384.72;;;27.54;100.00
6028;BME280;3042;43.194;27.646;2022-08-03T02:24:41;101372.53;;;27.39;100.00
6028;BME280;3042;43.194;27.646;2022-08-03T02:27:19;101403.03;;;27.71;100.00
6028;BME280;3042;43.194;27.646;2022-08-03T02:29:50;101403.78;;;27.22;100.00
6028;BME280;3042;43.194;27.646;2022-08-03T02:32:20;101402.66;;;27.38;100.00
6028;BME280;3042;43.194;27.646;2022-08-03T02:34:53;101404.47;;;27.34;100.00
6028;BME280;3042;43.194;27.646;2022-08-03T02:37:25;101398.69;;;27.03;100.00
6028;BME280;3042;43.194;27.646;2022-08-03T02:39:58;101221.41;;;26.03;100.00
6028;BME280;3042;43.194;27.646;2022-08-03T02:42:29;101400.41;;;27.07;100.00
6028;BME280;3042;43.194;27.646;2022-08-03T02:44:59;101405.66;;;27.10;100.00
6028;BME280;3042;43.194;27.646;2022-08-03T02:47:28;101407.44;;;27.08;100.00
6028;BME280;3042;43.194;27.646;2022-08-03T02:49:59;101237.94;;;26.23;100.00
6028;BME280;3042;43.194;27.646;2022-08-03T02:52:29;101412.59;;;27.24;100.00
6028;BME280;3042;43.194;27.646;2022-08-03T02:54:59;101413.47;;;27.23;100.00
6028;BME280;3042;43.194;27.646;2022-08-03T02:57:27;101405.59;;;27.13;100.00
6028;BME280;3042;43.194;27.646;2022-08-03T02:59:57;101420.59;;;27.19;100.00
6028;BME280;3042;43.194;27.646;2022-08-03T03:02:27;101414.34;;;27.25;100.00
6028;BME280;3042;43.194;27.646;2022-08-03T03:04:55;101402.13;;;27.11;100.00
6028;BME280;3042;43.194;27.646;2022-08-03T03:07:25;101422.22;;;27.31;100.00
6028;BME280;3042;43.194;27.646;2022-08-03T03:09:52;101400.44;;;27.04;100.00
6028;BME280;3042;43.194;27.646;2022-08-03T03:12:21;101416.19;;;27.20;100.00
6028;BME280;3042;43.194;27.646;2022-08-03T03:14:49;101407.44;;;27.11;100.00
6028;BME280;3042;43.194;27.646;2022-08-03T03:17:16;101403.97;;;27.03;100.00
6028;BME280;3042;43.194;27.646;2022-08-03T03:19:45;101405.72;;;27.07;100.00
6028;BME280;3042;43.194;27.646;2022-08-03T03:22:13;101301.22;;;26.48;100.00
6028;BME280;3042;43.194;27.646;2022-08-03T03:24:43;101391.53;;;27.08;100.00
6028;BME280;3042;43.194;27.646;2022-08-03T03:27:13;101435.31;;;27.42;100.00
6028;BME280;3042;43.194;27.646;2022-08-03T03:29:41;101423.25;;;27.21;100.00
6028;BME280;3042;43.194;27.646;2022-08-03T03:32:09;101419.72;;;27.19;100.00
6028;BME280;3042;43.194;27.646;2022-08-03T03:34:36;101422.38;;;27.15;100.00
6028;BME280;3042;43.194;27.646;2022-08-03T03:37:04;101427.75;;;27.12;100.00
6028;BME280;3042;43.194;27.646;2022-08-03T03:39:31;101420.59;;;27.17;100.00
6028;BME280;3042;43.194;27.646;2022-08-03T03:42:01;101337.38;;;26.58;100.00
6028;BME280;3042;43.194;27.646;2022-08-03T03:44:28;101437.16;;;27.38;100.00
6028;BME280;3042;43.194;27.646;2022-08-03T03:46:57;101445.88;;;27.46;100.00
6028;BME280;3042;43.194;27.646;2022-08-03T03:49:25;101461.66;;;27.58;100.00
6028;BME280;3042;43.194;27.646;2022-08-03T03:51:53;101451.28;;;27.40;100.00
6028;BME280;3042;43.194;27.646;2022-08-03T03:54:21;101444.06;;;27.51;100.00
6028;BME280;3042;43.194;27.646;2022-08-03T03:56:48;101455.44;;;27.60;100.00
6028;BME280;3042;43.194;27.646;2022-08-03T03:59:17;101469.25;;;27.85;100.00
6028;BME280;3042;43.194;27.646;2022-08-03T04:01:44;101449.22;;;27.61;100.00
6028;BME280;3042;43.194;27.646;2022-08-03T04:04:12;101453.50;;;27.71;100.00
6028;BME280;3042;43.194;27.646;2022-08-03T04:07:11;101457.06;;;27.68;100.00
6028;BME280;3042;43.194;27.646;2022-08-03T04:09:56;101473.69;;;27.84;100.00
6028;BME280;3042;43.194;27.646;2022-08-03T04:12:42;101481.19;;;28.13;100.00
6028;BME280;3042;43.194;27.646;2022-08-03T04:15:12;101500.06;;;28.51;100.00
6028;BME280;3042;43.194;27.646;2022-08-03T04:17:41;101490.09;;;28.62;100.00
6028;BME280;3042;43.194;27.646;2022-08-03T04:20:11;101492.75;;;28.64;100.00
6028;BME280;3042;43.194;27.646;2022-08-03T04:22:39;101504.81;;;28.81;100.00
6028;BME280;3042;43.194;27.646;2022-08-03T04:25:09;101529.41;;;29.38;100.00
6028;BME280;3042;43.194;27.646;2022-08-03T04:27:45;101528.78;;;29.69;100.00
6028;BME280;3042;43.194;27.646;2022-08-03T04:30:15;101514.81;;;29.96;100.00
6028;BME280;3042;43.194;27.646;2022-08-03T04:32:43;101545.59;;;30.09;100.00
6028;BME280;3042;43.194;27.646;2022-08-03T04:35:16;101511.69;;;30.15;100.00
6028;BME280;3042;43.194;27.646;2022-08-03T04:37:45;101546.00;;;30.66;100.00
6028;BME280;3042;43.194;27.646;2022-08-03T04:40:17;101563.28;;;30.85;100.00
6028;BME280;3042;43.194;27.646;2022-08-03T04:42:47;101557.97;;;31.48;100.00
6028;BME280;3042;43.194;27.646;2022-08-03T04:45:18;101553.06;;;31.64;100.00
6028;BME280;3042;43.194;27.646;2022-08-03T04:47:46;101524.44;;;31.38;100.00
6028;BME280;3042;43.194;27.646;2022-08-03T04:50:15;101491.25;;;31.15;100.00
6028;BME280;3042;43.194;27.646;2022-08-03T04:52:43;101513.00;;;31.62;100.00
6028;BME280;3042;43.194;27.646;2022-08-03T04:55:10;101523.59;;;31.65;100.00
6028;BME280;3042;43.194;27.646;2022-08-03T04:57:38;101529.34;;;31.81;100.00
6028;BME280;3042;43.194;27.646;2022-08-03T05:00:06;101553.34;;;32.12;100.00
6028;BME280;3042;43.194;27.646;2022-08-03T05:02:35;101581.34;;;32.55;100.00
6028;BME280;3042;43.194;27.646;2022-08-03T05:05:02;101570.22;;;32.68;100.00
6028;BME280;3042;43.194;27.646;2022-08-03T05:07:30;101579.06;;;33.20;100.00
6028;BME280;3042;43.194;27.646;2022-08-03T05:09:57;101585.03;;;33.52;100.00
6028;BME280;3042;43.194;27.646;2022-08-03T05:15:10;101587.94;;;34.16;100.00
6028;BME280;3042;43.194;27.646;2022-08-03T05:17:39;101626.84;;;34.71;100.00
6028;BME280;3042;43.194;27.646;2022-08-03T05:20:07;101623.41;;;34.87;100.00
6028;BME280;3042;43.194;27.646;2022-08-03T05:22:35;101614.81;;;34.79;100.00
6028;BME280;3042;43.194;27.646;2022-08-03T05:25:03;101612.69;;;34.87;100.00
6028;BME280;3042;43.194;27.646;2022-08-03T05:27:30;101618.25;;;35.03;100.00
6028;BME280;3042;43.194;27.646;2022-08-03T05:29:57;101619.34;;;35.20;100.00
6028;BME280;3042;43.194;27.646;2022-08-03T05:32:25;101599.44;;;35.03;100.00
6028;BME280;3042;43.194;27.646;2022-08-03T05:34:53;101601.56;;;35.36;100.00
6028;BME280;3042;43.194;27.646;2022-08-03T05:37:21;101567.00;;;34.87;97.98
6028;BME280;3042;43.194;27.646;2022-08-03T05:39:48;101562.50;;;34.88;98.78
6028;BME280;3042;43.194;27.646;2022-08-03T05:42:16;101612.13;;;35.41;97.53
6028;BME280;3042;43.194;27.646;2022-08-03T05:44:46;101547.34;;;34.87;94.63
6028;BME280;3042;43.194;27.646;2022-08-03T05:47:14;101598.03;;;35.36;94.45
6028;BME280;3042;43.194;27.646;2022-08-03T05:49:41;101625.69;;;35.77;93.54
6028;BME280;3042;43.194;27.646;2022-08-03T05:52:10;101679.59;;;36.50;92.75
6028;BME280;3042;43.194;27.646;2022-08-03T05:54:37;101628.94;;;36.22;89.51
6028;BME280;3042;43.194;27.646;2022-08-03T05:57:04;101636.66;;;36.47;88.90
6028;BME280;3042;43.194;27.646;2022-08-03T05:59:32;101608.38;;;36.21;87.59
6028;BME280;3042;43.194;27.646;2022-08-03T06:01:59;101648.28;;;36.66;88.71
6028;BME280;3042;43.194;27.646;2022-08-03T06:04:26;101647.34;;;36.85;86.07
6028;BME280;3042;43.194;27.646;2022-08-03T06:06:53;101532.03;;;35.47;81.99
6028;BME280;3042;43.194;27.646;2022-08-03T06:09:22;101556.34;;;35.65;82.05
6028;BME280;3042;43.194;27.646;2022-08-03T06:11:49;101525.28;;;35.20;83.32
6028;BME280;3042;43.194;27.646;2022-08-03T06:14:17;101495.63;;;34.41;82.77
6028;BME280;3042;43.194;27.646;2022-08-03T06:16:44;101558.19;;;35.04;84.11
6028;BME280;3042;43.194;27.646;2022-08-03T06:19:11;101534.41;;;34.95;83.34
6028;BME280;3042;43.194;27.646;2022-08-03T06:21:39;101560.88;;;35.25;83.14
6028;BME280;3042;43.194;27.646;2022-08-03T06:24:06;101506.38;;;35.21;82.34
6028;BME280;3042;43.194;27.646;2022-08-03T06:26:35;101596.88;;;35.79;83.22
6028;BME280;3042;43.194;27.646;2022-08-03T06:29:02;101482.94;;;35.04;80.09
6028;BME280;3042;43.194;27.646;2022-08-03T06:31:30;101533.47;;;35.17;79.42
6028;BME280;3042;43.194;27.646;2022-08-03T06:33:57;101531.94;;;35.11;79.85
6028;BME280;3042;43.194;27.646;2022-08-03T06:36:24;101570.75;;;35.64;79.49
6028;BME280;3042;43.194;27.646;2022-08-03T06:38:56;101585.09;;;35.82;79.58
6028;BME280;3042;43.194;27.646;2022-08-03T06:41:23;101577.53;;;35.90;77.51
6028;BME280;3042;43.194;27.646;2022-08-03T06:43:52;101629.09;;;36.55;77.65
6028;BME280;3042;43.194;27.646;2022-08-03T06:46:20;101603.50;;;36.46;74.77
6028;BME280;3042;43.194;27.646;2022-08-03T06:48:48;101581.53;;;36.37;74.56
6028;BME280;3042;43.194;27.646;2022-08-03T06:51:15;101527.75;;;35.99;75.14
6028;BME280;3042;43.194;27.646;2022-08-03T06:53:42;101579.38;;;36.26;74.90
6028;BME280;3042;43.194;27.646;2022-08-03T06:56:10;101592.16;;;36.40;74.40
6028;BME280;3042;43.194;27.646;2022-08-03T06:58:37;101566.00;;;36.24;72.66
6028;BME280;3042;43.194;27.646;2022-08-03T07:01:06;101587.78;;;36.54;72.88
6028;BME280;3042;43.194;27.646;2022-08-03T07:03:33;101549.78;;;36.07;70.93
6028;BME280;3042;43.194;27.646;2022-08-03T07:06:00;101484.22;;;35.73;70.14
6028;BME280;3042;43.194;27.646;2022-08-03T07:08:28;101542.44;;;36.10;70.71
6028;BME280;3042;43.194;27.646;2022-08-03T07:10:55;101390.94;;;34.99;70.63
6028;BME280;3042;43.194;27.646;2022-08-03T07:13:22;101522.34;;;35.81;71.41
6028;BME280;3042;43.194;27.646;2022-08-03T07:15:50;101535.38;;;35.90;71.10
6028;BME280;3042;43.194;27.646;2022-08-03T07:18:19;101590.94;;;36.45;71.29
6028;BME280;3042;43.194;27.646;2022-08-03T07:20:46;101540.13;;;36.03;69.20
6028;BME280;3042;43.194;27.646;2022-08-03T07:23:14;101555.69;;;36.15;69.11
6028;BME280;3042;43.194;27.646;2022-08-03T07:25:41;101542.44;;;36.10;68.98
6028;BME280;3042;43.194;27.646;2022-08-03T07:28:09;101509.53;;;35.69;67.95
6028;BME280;3042;43.194;27.646;2022-08-03T07:30:36;101497.41;;;35.59;68.16
6028;BME280;3042;43.194;27.646;2022-08-03T07:33:03;101491.63;;;35.49;68.73
6028;BME280;3042;43.194;27.646;2022-08-03T07:35:32;101519.66;;;35.81;67.83
6028;BME280;3042;43.194;27.646;2022-08-03T07:37:59;101542.19;;;35.98;67.82
6028;BME280;3042;43.194;27.646;2022-08-03T07:40:26;101536.41;;;36.05;67.04
6028;BME280;3042;43.194;27.646;2022-08-03T07:42:54;101494.63;;;35.62;66.66
6028;BME280;3042;43.194;27.646;2022-08-03T07:45:23;101507.13;;;35.63;66.87
6028;BME280;3042;43.194;27.646;2022-08-03T07:47:51;101542.25;;;35.96;66.19
6028;BME280;3042;43.194;27.646;2022-08-03T07:50:18;101584.06;;;36.40;66.61
6028;BME280;3042;43.194;27.646;2022-08-03T07:52:47;101578.06;;;36.52;66.74
6028;BME280;3042;43.194;27.646;2022-08-03T07:55:15;101530.31;;;36.02;66.25
6028;BME280;3042;43.194;27.646;2022-08-03T07:57:42;101480.88;;;35.49;65.89
6028;BME280;3042;43.194;27.646;2022-08-03T08:00:13;101568.53;;;36.27;65.40
6028;BME280;3042;43.194;27.646;2022-08-03T08:02:41;101528.94;;;35.93;64.40
6028;BME280;3042;43.194;27.646;2022-08-03T08:05:09;101521.56;;;35.79;65.14
6028;BME280;3042;43.194;27.646;2022-08-03T08:07:37;101511.38;;;35.86;65.89
6028;BME280;3042;43.194;27.646;2022-08-03T08:10:07;101483.44;;;35.88;65.17
6028;BME280;3042;43.194;27.646;2022-08-03T08:12:36;101565.28;;;36.21;64.92
6028;BME280;3042;43.194;27.646;2022-08-03T08:15:05;101540.06;;;36.04;66.40
6028;BME280;3042;43.194;27.646;2022-08-03T08:17:41;101556.34;;;36.20;66.30
6028;BME280;3042;43.194;27.646;2022-08-03T08:20:09;101471.25;;;35.81;66.41
6028;BME280;3042;43.194;27.646;2022-08-03T08:22:37;101598.91;;;36.66;65.05
6028;BME280;3042;43.194;27.646;2022-08-03T08:25:06;101622.78;;;36.91;64.62
6028;BME280;3042;43.194;27.646;2022-08-03T08:27:40;101547.25;;;36.58;63.27
6028;BME280;3042;43.194;27.646;2022-08-03T08:30:08;101566.25;;;36.37;64.68
6028;BME280;3042;43.194;27.646;2022-08-03T08:32:36;101527.47;;;36.05;64.20
6028;BME280;3042;43.194;27.646;2022-08-03T08:35:03;101473.06;;;35.98;63.65
6028;BME280;3042;43.194;27.646;2022-08-03T08:37:31;101586.06;;;36.71;63.19
6028;BME280;3042;43.194;27.646;2022-08-03T08:39:58;101553.38;;;36.61;59.84
6028;BME280;3042;43.194;27.646;2022-08-03T08:42:27;101604.34;;;36.99;61.91
6028;BME280;3042;43.194;27.646;2022-08-03T08:44:54;101556.69;;;36.66;61.20
6028;BME280;3042;43.194;27.646;2022-08-03T08:47:24;101535.75;;;36.54;61.54
6028;BME280;3042;43.194;27.646;2022-08-03T08:49:52;101496.72;;;36.28;61.92
6028;BME280;3042;43.194;27.646;2022-08-03T08:52:23;101567.00;;;36.58;61.22
6028;BME280;3042;43.194;27.646;2022-08-03T08:54:52;101555.94;;;36.45;63.11
6028;BME280;3042;43.194;27.646;2022-08-03T08:57:24;101535.47;;;36.06;63.79
6028;BME280;3042;43.194;27.646;2022-08-03T08:59:54;101521.50;;;35.98;62.77
6028;BME280;3042;43.194;27.646;2022-08-03T09:02:21;101541.16;;;36.37;61.34
6028;BME280;3042;43.194;27.646;2022-08-03T09:04:49;101600.91;;;36.80;62.00
6028;BME280;3042;43.194;27.646;2022-08-03T09:07:17;101483.81;;;36.17;62.00
6028;BME280;3042;43.194;27.646;2022-08-03T09:09:44;101554.22;;;36.62;60.31
6028;BME280;3042;43.194;27.646;2022-08-03T09:12:12;101522.78;;;36.27;61.45
6028;BME280;3042;43.194;27.646;2022-08-03T09:14:39;101534.50;;;36.44;60.77
6028;BME280;3042;43.194;27.646;2022-08-03T09:17:08;101532.59;;;36.46;60.61
6028;BME280;3042;43.194;27.646;2022-08-03T09:19:35;101504.88;;;36.26;58.79
6028;BME280;3042;43.194;27.646;2022-08-03T09:22:13;101546.28;;;36.76;58.09
6028;BME280;3042;43.194;27.646;2022-08-03T09:24:53;101431.63;;;36.02;57.85
6028;BME280;3042;43.194;27.646;2022-08-03T09:27:22;101548.13;;;36.75;58.35
6028;BME280;3042;43.194;27.646;2022-08-03T09:29:49;101537.38;;;36.58;58.47
6028;BME280;3042;43.194;27.646;2022-08-03T09:32:20;101502.63;;;36.52;57.09
6028;BME280;3042;43.194;27.646;2022-08-03T09:34:48;101579.31;;;37.14;57.23
6028;BME280;3042;43.194;27.646;2022-08-03T09:37:17;101575.00;;;37.28;55.77
6028;BME280;3042;43.194;27.646;2022-08-03T09:39:45;101538.34;;;37.08;56.78
6028;BME280;3042;43.194;27.646;2022-08-03T09:42:15;101588.84;;;37.37;57.35
6028;BME280;3042;43.194;27.646;2022-08-03T09:44:44;101553.16;;;36.99;57.25
6028;BME280;3042;43.194;27.646;2022-08-03T09:47:13;101584.50;;;37.35;57.02
6028;BME280;3042;43.194;27.646;2022-08-03T09:49:42;101627.66;;;37.84;56.21
6028;BME280;3042;43.194;27.646;2022-08-03T09:52:29;101584.41;;;37.52;54.72
6028;BME280;3042;43.194;27.646;2022-08-03T09:54:58;101612.59;;;37.80;55.65
6028;BME280;3042;43.194;27.646;2022-08-03T09:57:26;101639.59;;;38.12;54.82
6028;BME280;3042;43.194;27.646;2022-08-03T10:00:05;101631.75;;;38.07;53.70
6028;BME280;3042;43.194;27.646;2022-08-03T10:02:35;101561.00;;;37.37;54.35
6028;BME280;3042;43.194;27.646;2022-08-03T10:05:04;101567.88;;;37.43;54.88
6028;BME280;3042;43.194;27.646;2022-08-03T10:07:41;101607.72;;;37.87;54.16
6028;BME280;3042;43.194;27.646;2022-08-03T10:10:09;101483.72;;;37.20;54.05
6028;BME280;3042;43.194;27.646;2022-08-03T10:12:37;101477.94;;;36.94;54.70
6028;BME280;3042;43.194;27.646;2022-08-03T10:15:06;101621.06;;;38.06;54.96
6028;BME280;3042;43.194;27.646;2022-08-03T10:17:33;101579.41;;;37.78;54.39
6028;BME280;3042;43.194;27.646;2022-08-03T10:20:01;101533.41;;;37.32;53.88
6028;BME280;3042;43.194;27.646;2022-08-03T10:22:32;101542.63;;;37.44;54.48
6028;BME280;3042;43.194;27.646;2022-08-03T10:25:03;101561.81;;;37.55;54.73
6028;BME280;3042;43.194;27.646;2022-08-03T10:27:36;101568.81;;;37.75;54.89
6028;BME280;3042;43.194;27.646;2022-08-03T10:30:06;101608.16;;;38.11;55.20
6028;BME280;3042;43.194;27.646;2022-08-03T10:32:37;101580.19;;;37.96;54.75
6028;BME280;3042;43.194;27.646;2022-08-03T10:35:07;101604.56;;;38.26;55.53
6028;BME280;3042;43.194;27.646;2022-08-03T10:37:41;101644.63;;;38.80;54.91
6028;BME280;3042;43.194;27.646;2022-08-03T10:40:12;101614.38;;;38.59;53.93
6028;BME280;3042;43.194;27.646;2022-08-03T10:42:41;101582.00;;;38.27;55.08
6028;BME280;3042;43.194;27.646;2022-08-03T10:45:17;101544.41;;;37.92;55.15
6028;BME280;3042;43.194;27.646;2022-08-03T10:47:46;101505.78;;;37.44;55.93
6028;BME280;3042;43.194;27.646;2022-08-03T10:50:14;101511.53;;;37.54;55.55
6028;BME280;3042;43.194;27.646;2022-08-03T10:52:57;101523.34;;;37.83;54.64
6028;BME280;3042;43.194;27.646;2022-08-03T10:55:30;101579.06;;;38.16;54.87
6028;BME280;3042;43.194;27.646;2022-08-03T10:58:15;101507.16;;;37.51;54.43
6028;BME280;3042;43.194;27.646;2022-08-03T11:01:03;101509.97;;;37.66;55.38
6028;BME280;3042;43.194;27.646;2022-08-03T11:03:32;101497.59;;;37.62;55.00
6028;BME280;3042;43.194;27.646;2022-08-03T11:06:14;101470.59;;;37.46;53.54
6028;BME280;3042;43.194;27.646;2022-08-03T11:08:45;101533.25;;;37.98;53.92
6028;BME280;3042;43.194;27.646;2022-08-03T11:11:25;101578.84;;;38.65;52.89
6028;BME280;3042;43.194;27.646;2022-08-03T11:13:59;101501.69;;;38.00;52.90
6028;BME280;3042;43.194;27.646;2022-08-03T11:16:29;101444.44;;;37.64;53.26
6028;BME280;3042;43.194;27.646;2022-08-03T11:18:58;101504.09;;;38.05;52.67
6028;BME280;3042;43.194;27.646;2022-08-03T11:21:53;101529.31;;;38.20;51.61
6028;BME280;3042;43.194;27.646;2022-08-03T11:25:00;101529.81;;;38.27;51.11
6028;BME280;3042;43.194;27.646;2022-08-03T11:27:29;101468.19;;;37.73;51.77
6028;BME280;3042;43.194;27.646;2022-08-03T11:29:58;101485.88;;;37.93;52.50
6028;BME280;3042;43.194;27.646;2022-08-03T11:32:56;101528.28;;;38.37;51.62
6028;BME280;3042;43.194;27.646;2022-08-03T11:35:25;101511.41;;;38.33;51.51
6028;BME280;3042;43.194;27.646;2022-08-03T11:38:08;101439.31;;;37.89;49.95
6028;BME280;3042;43.194;27.646;2022-08-03T11:40:40;101509.16;;;38.26;50.17
6028;BME280;3042;43.194;27.646;2022-08-03T11:43:09;101421.72;;;37.68;49.47
6028;BME280;3042;43.194;27.646;2022-08-03T11:45:36;101239.84;;;36.48;49.19
6028;BME280;3042;43.194;27.646;2022-08-03T11:48:15;101497.41;;;38.27;49.12
6028;BME280;3042;43.194;27.646;2022-08-03T11:50:42;101475.28;;;38.06;49.18
6028;BME280;3042;43.194;27.646;2022-08-03T11:53:15;101355.97;;;37.23;48.49
6028;BME280;3042;43.194;27.646;2022-08-03T11:55:46;101518.13;;;38.56;48.39
6028;BME280;3042;43.194;27.646;2022-08-03T11:58:16;101467.97;;;38.22;47.73
6028;BME280;3042;43.194;27.646;2022-08-03T12:00:43;101438.50;;;37.73;47.93
6028;BME280;3042;43.194;27.646;2022-08-03T12:03:13;101492.56;;;38.48;48.23
6028;BME280;3042;43.194;27.646;2022-08-03T12:05:42;101518.16;;;38.71;48.36
6028;BME280;3042;43.194;27.646;2022-08-03T12:08:11;101498.34;;;38.56;46.82
6028;BME280;3042;43.194;27.646;2022-08-03T12:10:39;101454.69;;;38.19;46.63
6028;BME280;3042;43.194;27.646;2022-08-03T12:13:08;101471.84;;;38.32;47.37
6028;BME280;3042;43.194;27.646;2022-08-03T12:15:36;101487.16;;;38.48;47.99
6028;BME280;3042;43.194;27.646;2022-08-03T12:18:13;101552.28;;;39.02;47.84
6028;BME280;3042;43.194;27.646;2022-08-03T12:20:41;101311.75;;;37.41;48.61
6028;BME280;3042;43.194;27.646;2022-08-03T12:23:09;101482.94;;;38.42;48.70
6028;BME280;3042;43.194;27.646;2022-08-03T12:25:38;101488.53;;;38.55;47.72
6028;BME280;3042;43.194;27.646;2022-08-03T12:28:15;101498.56;;;38.67;47.52
6028;BME280;3042;43.194;27.646;2022-08-03T12:30:44;101496.63;;;38.69;47.96
6028;BME280;3042;43.194;27.646;2022-08-03T12:33:20;101478.88;;;38.65;47.52
6028;BME280;3042;43.194;27.646;2022-08-03T12:35:59;101419.16;;;38.11;46.95
6028;BME280;3042;43.194;27.646;2022-08-03T12:38:28;101429.59;;;38.17;45.57
6028;BME280;3042;43.194;27.646;2022-08-03T12:41:01;101453.00;;;38.47;45.61
6028;BME280;3042;43.194;27.646;2022-08-03T12:43:30;101461.09;;;38.61;46.54
6028;BME280;3042;43.194;27.646;2022-08-03T12:46:11;101460.53;;;38.70;45.69
6028;BME280;3042;43.194;27.646;2022-08-03T12:49:04;101510.09;;;38.99;46.36
6028;BME280;3042;43.194;27.646;2022-08-03T12:51:33;101500.50;;;38.94;46.71
6028;BME280;3042;43.194;27.646;2022-08-03T12:54:01;101453.47;;;38.53;45.26
6028;BME280;3042;43.194;27.646;2022-08-03T12:56:29;101457.81;;;38.70;45.14
6028;BME280;3042;43.194;27.646;2022-08-03T12:58:58;101502.44;;;39.20;44.55
6028;BME280;3042;43.194;27.646;2022-08-03T13:04:53;101496.75;;;39.11;44.72
6028;BME280;3042;43.194;27.646;2022-08-03T13:07:21;101372.88;;;38.03;45.27
6028;BME280;3042;43.194;27.646;2022-08-03T13:09:49;101460.53;;;38.70;45.44
6028;BME280;3042;43.194;27.646;2022-08-03T13:12:18;101441.03;;;38.65;44.58
6028;BME280;3042;43.194;27.646;2022-08-03T13:14:49;101472.41;;;39.11;44.37
6028;BME280;3042;43.194;27.646;2022-08-03T13:17:17;101446.94;;;38.72;44.12